createdAt,value
2023-03-31T00:00:54.067Z,100064.84
2023-03-31T00:03:23.860Z,100073.25
2023-03-31T00:05:58.229Z,100064.44
2023-03-31T00:08:30.041Z,100066.69
2023-03-31T00:11:01.012Z,100057.94
2023-03-31T00:13:31.095Z,100063.03
2023-03-31T00:15:59.990Z,100068.97
2023-03-31T00:18:27.724Z,100063.03
2023-03-31T00:20:58.226Z,100070.81
2023-03-31T00:23:29.116Z,100062.63
2023-03-31T00:25:56.833Z,100056.91
2023-03-31T00:28:24.544Z,100054.47
2023-03-31T00:30:53.680Z,100056.06
2023-03-31T00:33:21.256Z,100058.94
2023-03-31T00:35:52.472Z,100055.25
2023-03-31T00:38:22.049Z,100047.91
2023-03-31T00:40:51.244Z,100050.75
2023-03-31T00:43:32.235Z,100049.94
2023-03-31T00:46:08.697Z,100052.00
2023-03-31T00:48:38.618Z,100049.13
2023-03-31T00:51:08.695Z,100041.13
2023-03-31T00:53:37.913Z,100045.44
2023-03-31T00:56:10.407Z,100037.47
2023-03-31T00:58:43.899Z,100034.59
2023-03-31T01:01:17.164Z,100032.34
2023-03-31T01:03:46.741Z,100033.97
2023-03-31T01:06:16.795Z,100030.31
2023-03-31T01:08:45.397Z,100025.59
2023-03-31T01:11:16.372Z,100020.47
2023-03-31T01:13:45.953Z,100012.47
2023-03-31T01:16:14.960Z,100014.94
2023-03-31T01:18:46.467Z,100017.59
2023-03-31T01:21:47.982Z,100005.31
2023-03-31T01:25:01.446Z,99991.78
2023-03-31T01:27:50.881Z,99998.34
2023-03-31T01:30:38.552Z,100003.47
2023-03-31T01:33:39.770Z,100006.75
2023-03-31T01:36:23.446Z,99992.59
2023-03-31T01:39:22.603Z,99988.72
2023-03-31T01:41:59.308Z,99991.38
2023-03-31T01:44:34.445Z,99985.63
2023-03-31T01:47:06.069Z,99981.94
2023-03-31T01:49:42.535Z,99978.28
2023-03-31T01:52:20.501Z,99972.94
2023-03-31T01:54:52.117Z,99971.91
2023-03-31T01:57:28.907Z,99962.91
2023-03-31T02:00:05.603Z,99962.31
2023-03-31T02:02:38.642Z,99970.06
2023-03-31T02:05:11.591Z,99971.72
2023-03-31T02:07:44.155Z,99960.84
2023-03-31T02:10:14.306Z,99969.84
2023-03-31T02:12:45.622Z,99964.75
2023-03-31T02:15:19.793Z,99958.59
2023-03-31T02:17:50.817Z,99963.72
2023-03-31T02:20:21.133Z,99951.66
2023-03-31T02:22:53.493Z,99953.28
2023-03-31T02:25:24.797Z,99951.66
2023-03-31T02:27:57.761Z,99949.00
2023-03-31T02:30:30.735Z,99950.00
2023-03-31T02:32:59.837Z,99945.50
2023-03-31T02:35:27.671Z,99946.09
2023-03-31T02:37:55.465Z,99935.69
2023-03-31T02:40:27.571Z,99935.25
2023-03-31T02:42:57.101Z,99936.47
2023-03-31T02:45:45.744Z,99938.94
2023-03-31T02:48:19.143Z,99929.31
2023-03-31T02:51:03.765Z,99931.78
2023-03-31T02:53:44.563Z,99926.25
2023-03-31T02:56:28.017Z,99934.06
2023-03-31T02:59:13.899Z,99921.34
2023-03-31T03:01:52.708Z,99910.09
2023-03-31T03:04:37.276Z,99910.09
2023-03-31T03:07:14.270Z,99910.69
2023-03-31T03:09:52.319Z,99909.91
2023-03-31T03:12:26.160Z,99904.34
2023-03-31T03:15:01.552Z,99900.88
2023-03-31T03:17:34.676Z,99900.69
2023-03-31T03:20:07.881Z,99895.78
2023-03-31T03:22:36.283Z,99897.03
2023-03-31T03:25:04.801Z,99893.72
2023-03-31T03:27:32.749Z,99887.38
2023-03-31T03:30:02.641Z,99888.22
2023-03-31T03:32:30.340Z,99893.31
2023-03-31T03:34:58.074Z,99878.38
2023-03-31T03:37:25.806Z,99877.56
2023-03-31T03:39:53.495Z,99869.59
2023-03-31T03:42:21.213Z,99876.53
2023-03-31T03:44:48.810Z,99868.34
2023-03-31T03:47:17.856Z,99866.09
2023-03-31T03:49:45.478Z,99859.97
2023-03-31T03:52:13.021Z,99866.69
2023-03-31T03:54:40.595Z,99856.69
2023-03-31T03:57:08.528Z,99856.69
2023-03-31T03:59:36.338Z,99860.13
2023-03-31T04:02:03.969Z,99859.53
2023-03-31T04:04:33.025Z,99853.19
2023-03-31T04:07:00.731Z,99847.66
2023-03-31T04:09:28.724Z,99844.38
2023-03-31T04:11:56.689Z,99838.25
2023-03-31T04:14:25.860Z,99829.84
2023-03-31T04:16:56.192Z,99838.84
2023-03-31T04:19:25.930Z,99828.00
2023-03-31T04:21:59.058Z,99827.19
2023-03-31T04:24:30.579Z,99822.66
2023-03-31T04:26:58.610Z,99817.13
2023-03-31T04:29:27.443Z,99823.28
2023-03-31T04:31:58.905Z,99816.53
2023-03-31T04:34:34.918Z,99810.38
2023-03-31T04:37:04.480Z,99812.03
2023-03-31T04:39:32.378Z,99812.44
2023-03-31T04:42:01.388Z,99793.41
2023-03-31T04:44:29.737Z,99798.28
2023-03-31T04:46:58.799Z,99794.41
2023-03-31T04:49:26.503Z,99786.44
2023-03-31T04:51:54.112Z,99781.53
2023-03-31T04:54:23.187Z,99772.09
2023-03-31T04:56:50.923Z,99768.78
2023-03-31T04:59:18.517Z,99773.69
2023-03-31T05:01:46.226Z,99773.69
2023-03-31T05:04:14.111Z,99775.31
2023-03-31T05:06:41.704Z,99772.06
2023-03-31T05:09:09.862Z,99774.94
2023-03-31T05:11:39.001Z,99761.84
2023-03-31T05:14:06.766Z,99765.94
2023-03-31T05:16:34.863Z,99761.03
2023-03-31T05:19:02.838Z,99766.34
2023-03-31T05:21:31.265Z,99764.72
2023-03-31T05:23:59.225Z,99763.69
2023-03-31T05:26:27.242Z,99763.47
2023-03-31T05:28:56.269Z,99755.28
2023-03-31T05:31:24.510Z,99748.13
2023-03-31T05:33:52.205Z,99745.22
2023-03-31T05:36:19.903Z,99739.06
2023-03-31T05:38:47.915Z,99744.22
2023-03-31T05:41:16.906Z,99739.47
2023-03-31T05:43:44.667Z,99732.06
2023-03-31T05:46:13.985Z,99728.63
2023-03-31T05:48:42.446Z,99731.06
2023-03-31T05:51:10.233Z,99731.88
2023-03-31T05:53:37.902Z,99730.84
2023-03-31T05:56:07.932Z,99733.28
2023-03-31T05:58:36.736Z,99729.59
2023-03-31T06:01:07.304Z,99728.34
2023-03-31T06:03:37.853Z,99723.41
2023-03-31T06:06:07.767Z,99719.50
2023-03-31T06:08:36.138Z,99719.47
2023-03-31T06:11:06.134Z,99716.38
2023-03-31T06:13:34.142Z,99716.75
2023-03-31T06:16:02.827Z,99709.94
2023-03-31T06:18:32.046Z,99713.81
2023-03-31T06:21:01.434Z,99710.72
2023-03-31T06:23:29.225Z,99712.13
2023-03-31T06:26:02.096Z,99706.34
2023-03-31T06:28:30.071Z,99704.50
2023-03-31T06:31:02.245Z,99713.22
2023-03-31T06:33:29.931Z,99705.97
2023-03-31T06:35:59.468Z,99705.94
2023-03-31T06:38:29.056Z,99701.13
2023-03-31T06:40:56.776Z,99704.75
2023-03-31T06:43:24.646Z,99700.81
2023-03-31T06:45:54.120Z,99698.28
2023-03-31T06:48:23.485Z,99694.16
2023-03-31T06:50:51.118Z,99701.13
2023-03-31T06:53:18.825Z,99697.66
2023-03-31T06:55:47.743Z,99704.81
2023-03-31T06:58:15.704Z,99698.16
2023-03-31T07:00:45.824Z,99693.25
2023-03-31T07:03:14.920Z,99689.41
2023-03-31T07:05:42.583Z,99696.59
2023-03-31T07:08:10.618Z,99691.47
2023-03-31T07:10:38.336Z,99690.47
2023-03-31T07:13:07.382Z,99689.06
2023-03-31T07:15:35.045Z,99690.59
2023-03-31T07:18:03.072Z,99688.91
2023-03-31T07:20:32.665Z,99687.06
2023-03-31T07:23:00.288Z,99692.75
2023-03-31T07:25:27.952Z,99689.66
2023-03-31T07:27:55.568Z,99690.69
2023-03-31T07:30:24.774Z,99688.38
2023-03-31T07:32:54.728Z,99689.56
2023-03-31T07:35:23.971Z,99687.88
2023-03-31T07:37:52.753Z,99685.56
2023-03-31T07:40:23.626Z,99683.88
2023-03-31T07:42:52.257Z,99675.53
2023-03-31T07:45:21.477Z,99673.38
2023-03-31T07:47:50.739Z,99666.13
2023-03-31T07:50:19.439Z,99677.94
2023-03-31T07:52:47.615Z,99674.38
2023-03-31T07:55:16.507Z,99672.88
2023-03-31T07:57:46.248Z,99664.78
2023-03-31T08:00:16.109Z,99660.97
2023-03-31T08:02:44.703Z,99658.00
2023-03-31T08:05:15.603Z,99658.69
2023-03-31T08:07:45.885Z,99656.50
2023-03-31T08:10:16.245Z,99651.69
2023-03-31T08:12:44.059Z,99651.00
2023-03-31T08:15:12.540Z,99647.50
2023-03-31T08:17:40.694Z,99646.13
2023-03-31T08:20:10.459Z,99642.66
2023-03-31T08:22:41.579Z,99633.47
2023-03-31T08:25:10.339Z,99634.03
2023-03-31T08:27:39.684Z,99635.69
2023-03-31T08:30:09.868Z,99627.41
2023-03-31T08:32:38.336Z,99629.50
2023-03-31T08:35:07.147Z,99620.94
2023-03-31T08:37:34.809Z,99621.97
2023-03-31T08:40:05.389Z,99619.75
2023-03-31T08:42:39.419Z,99619.19
2023-03-31T08:45:16.774Z,99614.31
2023-03-31T08:47:47.276Z,99613.50
2023-03-31T08:50:18.047Z,99604.53
2023-03-31T08:52:51.312Z,99608.47
2023-03-31T08:55:26.612Z,99598.81
2023-03-31T08:58:00.950Z,99599.28
2023-03-31T09:00:41.602Z,99591.31
2023-03-31T09:03:16.565Z,99590.66
2023-03-31T09:05:59.579Z,99587.00
2023-03-31T09:08:37.589Z,99577.81
2023-03-31T09:11:14.414Z,99584.00
2023-03-31T09:14:07.004Z,99576.16
2023-03-31T09:16:39.829Z,99575.09
2023-03-31T09:19:15.424Z,99571.66
2023-03-31T09:21:45.821Z,99563.06
2023-03-31T09:24:19.934Z,99565.47
2023-03-31T09:26:53.352Z,99560.53
2023-03-31T09:29:29.513Z,99561.34
2023-03-31T09:32:02.992Z,99557.88
2023-03-31T09:34:33.190Z,99557.28
2023-03-31T09:37:01.232Z,99557.03
2023-03-31T09:39:28.852Z,99553.75
2023-03-31T09:41:57.841Z,99539.63
2023-03-31T09:44:38.029Z,99538.09
2023-03-31T09:47:11.306Z,99534.56
2023-03-31T09:49:41.645Z,99532.78
2023-03-31T09:52:30.359Z,99532.66
2023-03-31T09:55:02.099Z,99529.59
2023-03-31T09:57:34.020Z,99528.69
2023-03-31T10:00:14.588Z,99530.41
2023-03-31T10:02:45.714Z,99523.94
2023-03-31T10:05:31.200Z,99527.81
2023-03-31T10:08:21.380Z,99526.00
2023-03-31T10:10:51.426Z,99525.34
2023-03-31T10:13:23.724Z,99524.13
2023-03-31T10:15:54.321Z,99520.00
2023-03-31T10:18:32.334Z,99516.19
2023-03-31T10:21:01.260Z,99507.31
2023-03-31T10:23:32.303Z,99508.22
2023-03-31T10:26:01.580Z,99504.41
2023-03-31T10:28:33.148Z,99500.09
2023-03-31T10:31:03.062Z,99501.22
2023-03-31T10:33:34.643Z,99498.59
2023-03-31T10:36:08.264Z,99496.00
2023-03-31T10:38:40.121Z,99494.22
2023-03-31T10:41:08.323Z,99502.34
2023-03-31T10:43:41.579Z,99501.00
2023-03-31T10:46:10.622Z,99483.09
2023-03-31T10:48:41.384Z,99484.03
2023-03-31T10:51:15.801Z,99482.41
2023-03-31T10:53:45.023Z,99476.38
2023-03-31T10:56:36.140Z,99481.16
2023-03-31T10:59:30.921Z,99477.84
2023-03-31T11:02:23.907Z,99477.22
2023-03-31T11:05:06.360Z,99478.81
2023-03-31T11:07:49.569Z,99470.00
2023-03-31T11:10:38.286Z,99472.78
2023-03-31T11:13:12.551Z,99471.38
2023-03-31T11:15:51.864Z,99464.19
2023-03-31T11:18:37.495Z,99472.03
2023-03-31T11:21:18.006Z,99473.91
2023-03-31T11:23:51.873Z,99467.88
2023-03-31T11:26:28.724Z,99465.56
2023-03-31T11:29:16.319Z,99475.41
2023-03-31T11:31:52.731Z,99478.97
2023-03-31T11:34:48.837Z,99470.00
2023-03-31T11:37:31.669Z,99465.03
2023-03-31T11:40:14.536Z,99465.47
2023-03-31T11:42:50.519Z,99463.50
2023-03-31T11:45:22.730Z,99464.38
2023-03-31T11:47:57.542Z,99466.13
2023-03-31T11:50:29.809Z,99449.38
2023-03-31T11:53:01.661Z,99451.78
2023-03-31T11:55:32.388Z,99446.91
2023-03-31T11:58:05.243Z,99437.09
2023-03-31T12:00:38.195Z,99447.63
2023-03-31T12:03:13.549Z,99443.19
2023-03-31T12:05:46.188Z,99432.09
2023-03-31T12:08:18.477Z,99441.13
2023-03-31T12:10:51.309Z,99435.91
2023-03-31T12:13:35.102Z,99429.41
2023-03-31T12:16:07.548Z,99438.72
2023-03-31T12:18:42.285Z,99428.91
2023-03-31T12:21:11.401Z,99420.50
2023-03-31T12:23:44.073Z,99412.00
2023-03-31T12:26:23.395Z,99410.75
2023-03-31T12:28:57.171Z,99418.31
2023-03-31T12:31:27.238Z,99406.25
2023-03-31T12:34:01.133Z,99407.38
2023-03-31T12:36:43.079Z,99404.97
2023-03-31T12:39:26.392Z,99402.00
2023-03-31T12:42:07.304Z,99406.56
2023-03-31T12:44:53.196Z,99395.53
2023-03-31T12:47:41.913Z,99395.00
2023-03-31T12:50:28.161Z,99392.56
2023-03-31T12:53:06.183Z,99388.78
2023-03-31T12:55:39.030Z,99393.28
2023-03-31T12:58:42.373Z,99383.59
2023-03-31T13:01:14.732Z,99387.63
2023-03-31T13:03:48.948Z,99390.56
2023-03-31T13:06:59.415Z,99382.16
2023-03-31T13:09:46.399Z,99381.13
2023-03-31T13:12:19.915Z,99380.63
2023-03-31T13:14:49.558Z,99372.03
2023-03-31T13:17:27.132Z,99368.78
2023-03-31T13:19:56.186Z,99369.81
2023-03-31T13:22:36.175Z,99367.91
2023-03-31T13:25:43.589Z,99366.19
2023-03-31T13:28:30.485Z,99362.03
2023-03-31T13:31:02.038Z,99365.91
2023-03-31T13:33:53.897Z,99367.22
2023-03-31T13:36:41.707Z,99367.56
2023-03-31T13:39:32.703Z,99373.09
2023-03-31T13:42:12.728Z,99377.03
2023-03-31T13:45:06.403Z,99373.19
2023-03-31T13:48:00.166Z,99369.72
2023-03-31T13:50:47.168Z,99374.19
2023-03-31T13:53:29.138Z,99374.06
2023-03-31T13:56:08.889Z,99367.09
2023-03-31T13:59:04.324Z,99358.44
2023-03-31T14:01:46.934Z,99360.28
2023-03-31T14:04:31.291Z,99358.88
2023-03-31T14:07:03.066Z,99356.72
2023-03-31T14:09:34.183Z,99358.16
2023-03-31T14:12:03.049Z,99351.28
2023-03-31T14:14:30.909Z,99359.41
2023-03-31T14:17:02.605Z,99356.56
2023-03-31T14:20:07.967Z,99339.97
2023-03-31T14:22:47.928Z,99352.44
2023-03-31T14:25:24.058Z,99340.47
2023-03-31T14:28:02.389Z,99343.44
2023-03-31T14:30:42.482Z,99343.06
2023-03-31T14:33:25.100Z,99341.69
2023-03-31T14:35:59.430Z,99330.34
2023-03-31T14:38:29.872Z,99335.13
2023-03-31T14:41:01.024Z,99341.78
2023-03-31T14:43:30.671Z,99337.13
2023-03-31T14:45:59.851Z,99339.47
2023-03-31T14:48:30.564Z,99337.25
2023-03-31T14:50:59.933Z,99336.91
2023-03-31T14:53:28.258Z,99338.22
2023-03-31T14:56:02.176Z,99339.91
2023-03-31T14:58:34.649Z,99340.00
2023-03-31T15:01:05.110Z,99331.38
2023-03-31T15:03:36.247Z,99335.25
2023-03-31T15:06:05.885Z,99338.41
2023-03-31T15:08:36.817Z,99334.13
2023-03-31T15:11:13.122Z,99337.38
2023-03-31T15:13:53.431Z,99329.97
2023-03-31T15:16:32.582Z,99330.56
2023-03-31T15:19:06.362Z,99331.06
2023-03-31T15:21:38.890Z,99321.16
2023-03-31T15:24:07.931Z,99327.22
2023-03-31T15:26:41.477Z,99326.59
2023-03-31T15:29:14.790Z,99329.94
2023-03-31T15:31:42.668Z,99326.00
2023-03-31T15:34:16.964Z,99325.06
2023-03-31T15:36:45.087Z,99320.47
2023-03-31T15:39:14.549Z,99322.28
2023-03-31T15:41:43.538Z,99318.69
2023-03-31T15:44:36.260Z,99322.13
2023-03-31T15:47:08.791Z,99320.78
2023-03-31T15:49:37.998Z,99317.00
2023-03-31T15:52:06.013Z,99323.13
2023-03-31T15:54:38.940Z,99317.72
2023-03-31T15:57:08.020Z,99330.94
2023-03-31T16:02:24.094Z,99332.75
2023-03-31T16:04:57.998Z,99330.81
2023-03-31T16:07:28.229Z,99331.38
2023-03-31T16:10:00.727Z,99333.41
2023-03-31T16:12:32.664Z,99333.97
2023-03-31T16:15:05.802Z,99340.81
2023-03-31T16:17:37.935Z,99338.06
2023-03-31T16:20:12.098Z,99333.06
2023-03-31T16:22:44.686Z,99340.19
2023-03-31T16:25:14.774Z,99338.00
2023-03-31T16:27:45.014Z,99336.31
2023-03-31T16:30:15.518Z,99340.34
2023-03-31T16:33:02.910Z,99348.84
2023-03-31T16:35:34.126Z,99342.63
2023-03-31T16:38:02.861Z,99349.69
2023-03-31T16:40:32.736Z,99354.09
2023-03-31T16:43:14.343Z,99343.75
2023-03-31T16:45:45.100Z,99349.66
2023-03-31T16:48:17.106Z,99343.50
2023-03-31T16:50:48.415Z,99346.91
2023-03-31T16:53:17.627Z,99351.81
2023-03-31T16:55:45.598Z,99360.41
2023-03-31T16:58:13.549Z,99346.38
2023-03-31T17:00:41.371Z,99350.25
2023-03-31T17:03:10.914Z,99352.94
2023-03-31T17:05:39.856Z,99356.00
2023-03-31T17:08:10.058Z,99346.13
2023-03-31T17:10:38.772Z,99356.41
2023-03-31T17:13:08.865Z,99358.50
2023-03-31T17:15:37.883Z,99354.63
2023-03-31T17:18:07.281Z,99351.16
2023-03-31T17:20:35.460Z,99360.22
2023-03-31T17:23:04.322Z,99365.69
2023-03-31T17:25:34.446Z,99364.06
2023-03-31T17:28:02.063Z,99365.69
2023-03-31T17:30:29.898Z,99370.81
2023-03-31T17:32:58.351Z,99368.63
2023-03-31T17:35:26.279Z,99373.53
2023-03-31T17:37:55.147Z,99376.19
2023-03-31T17:40:24.685Z,99377.72
2023-03-31T17:42:54.348Z,99376.09
2023-03-31T17:45:22.110Z,99382.34
2023-03-31T17:47:50.228Z,99389.44
2023-03-31T17:50:18.216Z,99390.47
2023-03-31T17:52:45.793Z,99389.91
2023-03-31T17:55:14.457Z,99396.84
2023-03-31T17:57:42.144Z,99395.72
2023-03-31T18:00:15.058Z,99399.53
2023-03-31T18:02:43.897Z,99398.72
2023-03-31T18:05:12.102Z,99410.44
2023-03-31T18:07:39.822Z,99405.31
2023-03-31T18:10:08.557Z,99404.41
2023-03-31T18:12:36.719Z,99406.72
2023-03-31T18:15:06.947Z,99417.06
2023-03-31T18:17:36.498Z,99425.28
2023-03-31T18:20:05.418Z,99420.88
2023-03-31T18:22:33.088Z,99418.06
2023-03-31T18:25:00.757Z,99423.50
2023-03-31T18:27:28.375Z,99430.00
2023-03-31T18:29:56.062Z,99433.69
2023-03-31T18:32:23.757Z,99433.69
2023-03-31T18:34:52.814Z,99437.50
2023-03-31T18:37:20.826Z,99438.56
2023-03-31T18:39:48.438Z,99433.06
2023-03-31T18:42:18.312Z,99443.97
2023-03-31T18:44:46.419Z,99445.00
2023-03-31T18:47:14.461Z,99452.06
2023-03-31T18:49:42.678Z,99452.50
2023-03-31T18:52:11.817Z,99447.75
2023-03-31T18:54:39.418Z,99454.59
2023-03-31T18:57:07.414Z,99451.69
2023-03-31T18:59:35.104Z,99456.44
2023-03-31T19:02:02.798Z,99454.47
2023-03-31T19:04:30.915Z,99461.19
2023-03-31T19:06:58.559Z,99459.81
2023-03-31T19:09:27.905Z,99464.31
2023-03-31T19:11:57.165Z,99461.84
2023-03-31T19:14:25.109Z,99464.75
2023-03-31T19:16:52.907Z,99465.66
2023-03-31T19:19:20.653Z,99459.88
2023-03-31T19:21:48.497Z,99464.59
2023-03-31T19:24:16.858Z,99464.59
2023-03-31T19:26:45.836Z,99466.25
2023-03-31T19:29:13.500Z,99470.75
2023-03-31T19:31:41.502Z,99469.72
2023-03-31T19:34:11.512Z,99464.41
2023-03-31T19:36:40.135Z,99468.69
2023-03-31T19:39:08.232Z,99469.34
2023-03-31T19:41:36.698Z,99467.72
2023-03-31T19:44:05.805Z,99470.19
2023-03-31T19:46:33.642Z,99473.88
2023-03-31T19:49:01.444Z,99468.16
2023-03-31T19:51:29.051Z,99464.72
2023-03-31T19:53:56.953Z,99464.09
2023-03-31T19:56:27.006Z,99466.78
2023-03-31T19:58:54.718Z,99468.03
2023-03-31T20:01:26.026Z,99468.63
2023-03-31T20:03:56.372Z,99470.69
2023-03-31T20:06:26.423Z,99465.94
2023-03-31T20:08:55.891Z,99470.31
2023-03-31T20:11:24.527Z,99479.78
2023-03-31T20:13:52.396Z,99478.75
2023-03-31T20:16:22.369Z,99471.81
2023-03-31T20:18:57.204Z,99472.69
2023-03-31T20:21:27.159Z,99487.03
2023-03-31T20:23:56.365Z,99471.28
2023-03-31T20:26:26.326Z,99471.88
2023-03-31T20:28:55.916Z,99482.16
2023-03-31T20:31:25.553Z,99480.75
2023-03-31T20:33:57.072Z,99479.94
2023-03-31T20:36:27.103Z,99483.03
2023-03-31T20:38:54.924Z,99477.59
2023-03-31T20:41:24.669Z,99483.72
2023-03-31T20:43:52.318Z,99485.84
2023-03-31T20:46:20.194Z,99482.03
2023-03-31T20:48:49.660Z,99494.94
2023-03-31T20:51:20.813Z,99485.13
2023-03-31T20:53:50.256Z,99484.50
2023-03-31T20:56:19.984Z,99499.09
2023-03-31T20:58:49.023Z,99496.84
2023-03-31T21:01:19.724Z,99499.31
2023-03-31T21:03:47.911Z,99500.94
2023-03-31T21:06:18.528Z,99499.09
2023-03-31T21:08:47.552Z,99496.22
2023-03-31T21:11:15.391Z,99497.47
2023-03-31T21:13:44.674Z,99507.06
2023-03-31T21:16:12.874Z,99504.63
2023-03-31T21:18:40.500Z,99504.19
2023-03-31T21:21:11.139Z,99508.72
2023-03-31T21:23:40.592Z,99506.88
2023-03-31T21:26:09.915Z,99508.72
2023-03-31T21:28:39.095Z,99513.44
2023-03-31T21:31:08.057Z,99517.72
2023-03-31T21:33:38.440Z,99520.59
2023-03-31T21:36:07.732Z,99522.00
2023-03-31T21:38:36.219Z,99518.31
2023-03-31T21:41:07.942Z,99527.72
2023-03-31T21:43:35.918Z,99524.22
2023-03-31T21:46:03.667Z,99532.59
2023-03-31T21:48:31.864Z,99535.25
2023-03-31T21:51:00.652Z,99527.72
2023-03-31T21:53:30.152Z,99530.16
2023-03-31T21:55:58.546Z,99536.88
2023-03-31T21:58:29.659Z,99533.63
2023-03-31T22:00:58.952Z,99532.00
2023-03-31T22:03:28.752Z,99533.91
2023-03-31T22:05:57.121Z,99539.44
2023-03-31T22:08:25.315Z,99549.03
2023-03-31T22:10:53.669Z,99553.66
2023-03-31T22:13:22.095Z,99543.53
2023-03-31T22:15:51.484Z,99541.16
2023-03-31T22:18:19.864Z,99544.91
2023-03-31T22:20:48.412Z,99547.25
2023-03-31T22:23:16.736Z,99555.28
2023-03-31T22:25:44.694Z,99554.34
2023-03-31T22:28:12.712Z,99556.66
2023-03-31T22:30:40.464Z,99558.34
2023-03-31T22:33:09.477Z,99565.06
2023-03-31T22:35:37.305Z,99565.91
2023-03-31T22:38:06.350Z,99581.47
2023-03-31T22:40:35.779Z,99573.34
2023-03-31T22:43:03.891Z,99590.50
2023-03-31T22:45:31.687Z,99582.16
2023-03-31T22:47:59.672Z,99595.81
2023-03-31T22:50:28.702Z,99587.28
2023-03-31T22:52:56.629Z,99588.91
2023-03-31T22:55:24.325Z,99583.81
2023-03-31T22:57:51.962Z,99589.31
2023-03-31T23:00:20.210Z,99588.50
2023-03-31T23:02:47.900Z,99594.59
2023-03-31T23:05:15.729Z,99604.38
2023-03-31T23:07:44.775Z,99608.66
2023-03-31T23:10:12.545Z,99607.63
2023-03-31T23:12:40.201Z,99607.84
2023-03-31T23:15:09.161Z,99603.34
2023-03-31T23:17:36.882Z,99608.44
2023-03-31T23:20:06.354Z,99603.34
2023-03-31T23:22:34.932Z,99605.97
2023-03-31T23:25:04.363Z,99618.44
2023-03-31T23:27:32.253Z,99614.53
2023-03-31T23:30:00.363Z,99618.22
2023-03-31T23:32:29.908Z,99617.78
2023-03-31T23:34:57.504Z,99623.31
2023-03-31T23:37:25.246Z,99620.63
2023-03-31T23:39:52.999Z,99626.53
2023-03-31T23:42:22.121Z,99620.44
2023-03-31T23:44:49.744Z,99624.28
2023-03-31T23:47:17.347Z,99627.34
2023-03-31T23:49:45.024Z,99623.06
2023-03-31T23:52:12.626Z,99624.91
2023-03-31T23:54:40.301Z,99630.38
2023-03-31T23:57:08.239Z,99632.25
2023-03-31T23:59:37.385Z,99629.78
